AFV205 FQMA-FACT
Flight info
| Callsign | AFV205 |
|---|---|
| Flight time | 2h 39m |
| Altitude | 38000 |
| Route | VMA DCT TONKA DCT WRV DCT IXARA DCT BLV UZ40 ESRUK UQ51 GETEN GETEN1B |
| Aircraft | B738/M-SABDFGRVYL/LB2 |
Departure
| Time | 2026-04-28 18:35 |
|---|---|
| Airport | Maputo Airport (FQMA) |
Arrival
| Time | 2026-04-28 21:14 |
|---|---|
| Airport | Cape Town International Airport (FACT) |
| Time | Latitude | Longitude | Altitude | Speed | Heading |
|---|---|---|---|---|---|
| 2026-04-28 18:01 | -25.92308 | 32.57413 | 135 ft | 0 kts | 118° |
| 2026-04-28 18:24 | -25.92302 | 32.57401 | 135 ft | 2 kts | 120° |
| 2026-04-28 18:24 | -25.92297 | 32.57391 | 135 ft | 2 kts | 117° |
| 2026-04-28 18:24 | -25.92290 | 32.57377 | 135 ft | 2 kts | 111° |
| 2026-04-28 18:24 | -25.92288 | 32.57360 | 135 ft | 2 kts | 81° |
| 2026-04-28 18:25 | -25.92293 | 32.57344 | 135 ft | 2 kts | 57° |
| 2026-04-28 18:25 | -25.92302 | 32.57333 | 135 ft | 1 kts | 32° |
| 2026-04-28 18:25 | -25.92308 | 32.57329 | 135 ft | 1 kts | 26° |
| 2026-04-28 18:26 | -25.92310 | 32.57328 | 135 ft | 0 kts | 27° |
| 2026-04-28 18:27 | -25.92309 | 32.57328 | 135 ft | 1 kts | 27° |
| 2026-04-28 18:27 | -25.92276 | 32.57348 | 135 ft | 7 kts | 27° |
| 2026-04-28 18:27 | -25.92194 | 32.57396 | 135 ft | 16 kts | 28° |
| 2026-04-28 18:28 | -25.92100 | 32.57459 | 134 ft | 14 kts | 30° |
| 2026-04-28 18:28 | -25.92024 | 32.57506 | 135 ft | 11 kts | 28° |
| 2026-04-28 18:28 | -25.91925 | 32.57565 | 133 ft | 22 kts | 27° |
| 2026-04-28 18:28 | -25.91793 | 32.57643 | 134 ft | 19 kts | 28° |
| 2026-04-28 18:29 | -25.91686 | 32.57709 | 135 ft | 16 kts | 30° |
| 2026-04-28 18:29 | -25.91598 | 32.57766 | 135 ft | 13 kts | 28° |
| 2026-04-28 18:29 | -25.91493 | 32.57827 | 135 ft | 22 kts | 28° |
| 2026-04-28 18:29 | -25.91359 | 32.57909 | 139 ft | 19 kts | 28° |
| 2026-04-28 18:30 | -25.91249 | 32.57976 | 141 ft | 16 kts | 29° |
| 2026-04-28 18:30 | -25.91187 | 32.58015 | 142 ft | 13 kts | 28° |
| 2026-04-28 18:30 | -25.91071 | 32.58084 | 143 ft | 16 kts | 28° |
| 2026-04-28 18:30 | -25.90966 | 32.58148 | 145 ft | 19 kts | 28° |
| 2026-04-28 18:31 | -25.90842 | 32.58225 | 145 ft | 19 kts | 29° |
| 2026-04-28 18:31 | -25.90730 | 32.58294 | 145 ft | 18 kts | 29° |
| 2026-04-28 18:31 | -25.90613 | 32.58366 | 145 ft | 18 kts | 28° |
| 2026-04-28 18:31 | -25.90504 | 32.58431 | 147 ft | 16 kts | 28° |
| 2026-04-28 18:32 | -25.90400 | 32.58495 | 148 ft | 18 kts | 28° |
| 2026-04-28 18:32 | -25.90300 | 32.58557 | 149 ft | 15 kts | 34° |
| 2026-04-28 18:32 | -25.90216 | 32.58613 | 150 ft | 12 kts | 30° |
| 2026-04-28 18:32 | -25.90135 | 32.58657 | 151 ft | 13 kts | 26° |
| 2026-04-28 18:33 | -25.90048 | 32.58709 | 151 ft | 14 kts | 28° |
| 2026-04-28 18:33 | -25.89932 | 32.58779 | 151 ft | 22 kts | 28° |
| 2026-04-28 18:33 | -25.89789 | 32.58865 | 151 ft | 25 kts | 28° |
| 2026-04-28 18:33 | -25.89634 | 32.58932 | 151 ft | 21 kts | 346° |
| 2026-04-28 18:34 | -25.89615 | 32.58806 | 151 ft | 17 kts | 249° |
| 2026-04-28 18:34 | -25.89698 | 32.58715 | 151 ft | 18 kts | 208° |
| 2026-04-28 18:34 | -25.89932 | 32.58572 | 149 ft | 69 kts | 210° |
| 2026-04-28 18:34 | -25.90544 | 32.58194 | 145 ft | 128 kts | 209° |
| 2026-04-28 18:35 | -25.91452 | 32.57648 | 334 ft | 157 kts | 207° |
| 2026-04-28 18:35 | -25.92470 | 32.57061 | 804 ft | 170 kts | 206° |
| 2026-04-28 18:35 | -25.93552 | 32.56449 | 1256 ft | 184 kts | 204° |
| 2026-04-28 18:35 | -25.94771 | 32.55734 | 1548 ft | 213 kts | 210° |
| 2026-04-28 18:36 | -25.95987 | 32.54511 | 1713 ft | 250 kts | 227° |
| 2026-04-28 18:36 | -25.96909 | 32.53016 | 2610 ft | 246 kts | 237° |
| 2026-04-28 18:36 | -25.97448 | 32.51125 | 3014 ft | 270 kts | 262° |
| 2026-04-28 18:36 | -25.97530 | 32.49019 | 3714 ft | 276 kts | 263° |
| 2026-04-28 18:37 | -25.97812 | 32.46925 | 4549 ft | 273 kts | 254° |
| 2026-04-28 18:37 | -25.98391 | 32.44919 | 5341 ft | 273 kts | 248° |
| 2026-04-28 18:37 | -25.99136 | 32.42969 | 6097 ft | 275 kts | 246° |
| 2026-04-28 18:37 | -25.99937 | 32.41048 | 6968 ft | 273 kts | 246° |
| 2026-04-28 18:38 | -26.00729 | 32.39165 | 7896 ft | 269 kts | 246° |
| 2026-04-28 18:38 | -26.01504 | 32.37299 | 8792 ft | 266 kts | 247° |
| 2026-04-28 18:38 | -26.02267 | 32.35451 | 9721 ft | 262 kts | 248° |
| 2026-04-28 18:38 | -26.03027 | 32.33606 | 10508 ft | 265 kts | 248° |
| 2026-04-28 18:39 | -26.03814 | 32.31675 | 11017 ft | 278 kts | 248° |
| 2026-04-28 18:39 | -26.04624 | 32.29671 | 11493 ft | 292 kts | 248° |
| 2026-04-28 18:39 | -26.05476 | 32.27560 | 11980 ft | 305 kts | 248° |
| 2026-04-28 18:39 | -26.06375 | 32.25333 | 12412 ft | 320 kts | 248° |
| 2026-04-28 18:40 | -26.07309 | 32.23021 | 12857 ft | 333 kts | 248° |
| 2026-04-28 18:40 | -26.08263 | 32.20658 | 13434 ft | 341 kts | 248° |
| 2026-04-28 18:40 | -26.09239 | 32.18247 | 14096 ft | 346 kts | 248° |
| 2026-04-28 18:40 | -26.10235 | 32.15782 | 14820 ft | 348 kts | 248° |
| 2026-04-28 18:41 | -26.11236 | 32.13303 | 15518 ft | 352 kts | 249° |
| 2026-04-28 18:41 | -26.12258 | 32.10822 | 16184 ft | 356 kts | 247° |
| 2026-04-28 18:41 | -26.13440 | 32.08367 | 16863 ft | 360 kts | 244° |
| 2026-04-28 18:41 | -26.14737 | 32.05990 | 17529 ft | 363 kts | 242° |
| 2026-04-28 18:42 | -26.16102 | 32.03612 | 18109 ft | 368 kts | 241° |
| 2026-04-28 18:42 | -26.17502 | 32.01205 | 18783 ft | 370 kts | 242° |
| 2026-04-28 18:42 | -26.18908 | 31.98768 | 19467 ft | 371 kts | 242° |
| 2026-04-28 18:42 | -26.20304 | 31.96321 | 20043 ft | 375 kts | 242° |
| 2026-04-28 18:43 | -26.21715 | 31.93824 | 20627 ft | 379 kts | 242° |
| 2026-04-28 18:43 | -26.23133 | 31.91303 | 21257 ft | 381 kts | 242° |
| 2026-04-28 18:43 | -26.24536 | 31.88802 | 21895 ft | 382 kts | 242° |
| 2026-04-28 18:43 | -26.25947 | 31.86283 | 22508 ft | 384 kts | 242° |
| 2026-04-28 18:44 | -26.27387 | 31.83709 | 23017 ft | 388 kts | 242° |
| 2026-04-28 18:44 | -26.30276 | 31.78544 | 24052 ft | 395 kts | 243° |
| 2026-04-28 18:44 | -26.31739 | 31.75922 | 24543 ft | 398 kts | 243° |
| 2026-04-28 18:45 | -26.33219 | 31.73273 | 25050 ft | 401 kts | 243° |
| 2026-04-28 18:45 | -26.34712 | 31.70598 | 25568 ft | 403 kts | 243° |
| 2026-04-28 18:45 | -26.36211 | 31.67910 | 26053 ft | 406 kts | 243° |
| 2026-04-28 18:45 | -26.37706 | 31.65230 | 26537 ft | 408 kts | 244° |
| 2026-04-28 18:46 | -26.39208 | 31.62532 | 26949 ft | 412 kts | 244° |
| 2026-04-28 18:46 | -26.40737 | 31.59785 | 27381 ft | 415 kts | 244° |
| 2026-04-28 18:46 | -26.42240 | 31.57084 | 27869 ft | 416 kts | 244° |
| 2026-04-28 18:46 | -26.43771 | 31.54329 | 28173 ft | 421 kts | 244° |
| 2026-04-28 18:47 | -26.45320 | 31.51540 | 28636 ft | 422 kts | 244° |
| 2026-04-28 18:47 | -26.46879 | 31.48735 | 29134 ft | 422 kts | 244° |
| 2026-04-28 18:47 | -26.48412 | 31.45978 | 29795 ft | 418 kts | 244° |
| 2026-04-28 18:47 | -26.49953 | 31.43208 | 30394 ft | 415 kts | 244° |
| 2026-04-28 18:48 | -26.51474 | 31.40469 | 30897 ft | 414 kts | 244° |
| 2026-04-28 18:48 | -26.52996 | 31.37724 | 31395 ft | 413 kts | 245° |
| 2026-04-28 18:48 | -26.54511 | 31.34987 | 31859 ft | 412 kts | 245° |
| 2026-04-28 18:48 | -26.56030 | 31.32241 | 32376 ft | 410 kts | 245° |
| 2026-04-28 18:49 | -26.57519 | 31.29548 | 32867 ft | 410 kts | 245° |
| 2026-04-28 18:49 | -26.58534 | 31.27712 | 33210 ft | 409 kts | 245° |
| 2026-04-28 18:49 | -26.60524 | 31.24105 | 33881 ft | 408 kts | 245° |
| 2026-04-28 18:49 | -26.62014 | 31.21402 | 34361 ft | 408 kts | 245° |
| 2026-04-28 18:50 | -26.63485 | 31.18734 | 34918 ft | 405 kts | 244° |
| 2026-04-28 18:50 | -26.64967 | 31.16047 | 35476 ft | 402 kts | 244° |
| 2026-04-28 18:50 | -26.66398 | 31.13454 | 35972 ft | 400 kts | 244° |
| 2026-04-28 18:50 | -26.67737 | 31.11023 | 36377 ft | 399 kts | 244° |
| 2026-04-28 18:51 | -26.68993 | 31.08739 | 36757 ft | 398 kts | 244° |
| 2026-04-28 18:51 | -26.70541 | 31.05924 | 37193 ft | 397 kts | 244° |
| 2026-04-28 18:51 | -26.72102 | 31.03083 | 37641 ft | 395 kts | 244° |
| 2026-04-28 18:51 | -26.73603 | 31.00351 | 38058 ft | 394 kts | 244° |
| 2026-04-28 18:52 | -26.75021 | 30.97765 | 38235 ft | 396 kts | 243° |
| 2026-04-28 18:52 | -26.76471 | 30.95119 | 38239 ft | 395 kts | 244° |
| 2026-04-28 18:52 | -26.79322 | 30.89920 | 38243 ft | 390 kts | 244° |
| 2026-04-28 18:53 | -26.82157 | 30.84737 | 38250 ft | 393 kts | 244° |
| 2026-04-28 18:53 | -26.84997 | 30.79540 | 38254 ft | 392 kts | 244° |
| 2026-04-28 18:54 | -26.87846 | 30.74328 | 38261 ft | 390 kts | 244° |
| 2026-04-28 18:54 | -26.90663 | 30.69165 | 38266 ft | 390 kts | 244° |
| 2026-04-28 18:55 | -26.93012 | 30.64853 | 38267 ft | 390 kts | 244° |
| 2026-04-28 18:55 | -26.96317 | 30.58780 | 38274 ft | 389 kts | 244° |
| 2026-04-28 18:56 | -26.99134 | 30.53601 | 38273 ft | 389 kts | 244° |
| 2026-04-28 18:56 | -27.01951 | 30.48414 | 38272 ft | 386 kts | 244° |
| 2026-04-28 18:57 | -27.04764 | 30.43227 | 38283 ft | 389 kts | 244° |
| 2026-04-28 18:57 | -27.07567 | 30.38055 | 38295 ft | 387 kts | 244° |
| 2026-04-28 18:58 | -27.10364 | 30.32888 | 38298 ft | 388 kts | 244° |
| 2026-04-28 18:58 | -27.13150 | 30.27734 | 38312 ft | 386 kts | 245° |
| 2026-04-28 18:59 | -27.15949 | 30.22548 | 38326 ft | 385 kts | 244° |
| 2026-04-28 18:59 | -27.18743 | 30.17365 | 38322 ft | 384 kts | 245° |
| 2026-04-28 19:00 | -27.21502 | 30.12245 | 38326 ft | 384 kts | 244° |
| 2026-04-28 19:00 | -27.24261 | 30.07112 | 38335 ft | 385 kts | 244° |
| 2026-04-28 19:01 | -27.27039 | 30.01941 | 38331 ft | 383 kts | 245° |
| 2026-04-28 19:01 | -27.29774 | 29.96849 | 38331 ft | 383 kts | 245° |
| 2026-04-28 19:02 | -27.32512 | 29.91740 | 38323 ft | 381 kts | 245° |
| 2026-04-28 19:02 | -27.35249 | 29.86630 | 38323 ft | 383 kts | 245° |
| 2026-04-28 19:03 | -27.38005 | 29.81475 | 38318 ft | 382 kts | 245° |
| 2026-04-28 19:03 | -27.40724 | 29.76387 | 38320 ft | 380 kts | 245° |
| 2026-04-28 19:04 | -27.43465 | 29.71252 | 38319 ft | 382 kts | 245° |
| 2026-04-28 19:04 | -27.46186 | 29.66149 | 38316 ft | 380 kts | 245° |
| 2026-04-28 19:05 | -27.48918 | 29.61018 | 38318 ft | 382 kts | 245° |
| 2026-04-28 19:05 | -27.51642 | 29.55895 | 38318 ft | 379 kts | 245° |
| 2026-04-28 19:06 | -27.53892 | 29.51661 | 38320 ft | 380 kts | 245° |
| 2026-04-28 19:06 | -27.57071 | 29.45665 | 38322 ft | 381 kts | 245° |
| 2026-04-28 19:07 | -27.59792 | 29.40530 | 38323 ft | 380 kts | 245° |
| 2026-04-28 19:07 | -27.62446 | 29.35513 | 38325 ft | 379 kts | 245° |
| 2026-04-28 19:08 | -27.65150 | 29.30400 | 38332 ft | 379 kts | 245° |
| 2026-04-28 19:08 | -27.67845 | 29.25298 | 38332 ft | 377 kts | 245° |
| 2026-04-28 19:09 | -27.70535 | 29.20193 | 38334 ft | 379 kts | 245° |
| 2026-04-28 19:09 | -27.73225 | 29.15086 | 38327 ft | 378 kts | 245° |
| 2026-04-28 19:10 | -27.75932 | 29.10014 | 38324 ft | 378 kts | 244° |
| 2026-04-28 19:10 | -27.79326 | 29.05357 | 38323 ft | 392 kts | 231° |
| 2026-04-28 19:11 | -27.83570 | 29.01400 | 38318 ft | 396 kts | 227° |
| 2026-04-28 19:11 | -27.87992 | 28.97622 | 38317 ft | 397 kts | 226° |
| 2026-04-28 19:12 | -27.92404 | 28.93838 | 38317 ft | 395 kts | 227° |
| 2026-04-28 19:12 | -27.96492 | 28.89824 | 38316 ft | 382 kts | 236° |
| 2026-04-28 19:13 | -27.99461 | 28.85014 | 38317 ft | 375 kts | 247° |
| 2026-04-28 19:13 | -28.01853 | 28.79789 | 38318 ft | 373 kts | 249° |
| 2026-04-28 19:14 | -28.04135 | 28.74599 | 38318 ft | 373 kts | 249° |
| 2026-04-28 19:14 | -28.06460 | 28.69332 | 38317 ft | 373 kts | 249° |
| 2026-04-28 19:15 | -28.08777 | 28.64116 | 38321 ft | 372 kts | 248° |
| 2026-04-28 19:15 | -28.10706 | 28.59785 | 38324 ft | 370 kts | 249° |
| 2026-04-28 19:16 | -28.13409 | 28.53700 | 38321 ft | 372 kts | 248° |
| 2026-04-28 19:16 | -28.15744 | 28.48444 | 38324 ft | 371 kts | 249° |
| 2026-04-28 19:17 | -28.18057 | 28.43227 | 38326 ft | 371 kts | 249° |
| 2026-04-28 19:17 | -28.20343 | 28.38066 | 38324 ft | 371 kts | 249° |
| 2026-04-28 19:18 | -28.22622 | 28.32917 | 38320 ft | 371 kts | 249° |
| 2026-04-28 19:18 | -28.24926 | 28.27706 | 38311 ft | 368 kts | 249° |
| 2026-04-28 19:19 | -28.27179 | 28.22596 | 38302 ft | 370 kts | 249° |
| 2026-04-28 19:19 | -28.29362 | 28.17648 | 38302 ft | 370 kts | 249° |
| 2026-04-28 19:20 | -28.31598 | 28.12573 | 38300 ft | 369 kts | 249° |
| 2026-04-28 19:20 | -28.33733 | 28.07715 | 38301 ft | 370 kts | 249° |
| 2026-04-28 19:21 | -28.36043 | 28.02457 | 38299 ft | 368 kts | 249° |
| 2026-04-28 19:21 | -28.38309 | 27.97288 | 38299 ft | 369 kts | 249° |
| 2026-04-28 19:22 | -28.40210 | 27.92948 | 38298 ft | 369 kts | 249° |
| 2026-04-28 19:22 | -28.42873 | 27.86859 | 38295 ft | 369 kts | 249° |
| 2026-04-28 19:23 | -28.45152 | 27.81645 | 38292 ft | 368 kts | 249° |
| 2026-04-28 19:23 | -28.47409 | 27.76469 | 38289 ft | 370 kts | 249° |
| 2026-04-28 19:24 | -28.49689 | 27.71240 | 38286 ft | 368 kts | 249° |
| 2026-04-28 19:24 | -28.51953 | 27.66039 | 38285 ft | 367 kts | 249° |
| 2026-04-28 19:25 | -28.54218 | 27.60830 | 38286 ft | 367 kts | 249° |
| 2026-04-28 19:25 | -28.56460 | 27.55665 | 38283 ft | 366 kts | 249° |
| 2026-04-28 19:26 | -28.58720 | 27.50448 | 38283 ft | 367 kts | 249° |
| 2026-04-28 19:26 | -28.60960 | 27.45274 | 38283 ft | 366 kts | 249° |
| 2026-04-28 19:27 | -28.63211 | 27.40068 | 38280 ft | 366 kts | 249° |
| 2026-04-28 19:27 | -28.65451 | 27.34883 | 38281 ft | 366 kts | 250° |
| 2026-04-28 19:28 | -28.67695 | 27.29677 | 38277 ft | 366 kts | 250° |
| 2026-04-28 19:28 | -28.69942 | 27.24463 | 38278 ft | 365 kts | 249° |
| 2026-04-28 19:29 | -28.71802 | 27.20141 | 38278 ft | 365 kts | 249° |
| 2026-04-28 19:29 | -28.74387 | 27.14116 | 38277 ft | 366 kts | 250° |
| 2026-04-28 19:30 | -28.76611 | 27.08931 | 38275 ft | 366 kts | 250° |
| 2026-04-28 19:30 | -28.78855 | 27.03694 | 38270 ft | 365 kts | 250° |
| 2026-04-28 19:31 | -28.81090 | 26.98475 | 38274 ft | 365 kts | 250° |
| 2026-04-28 19:31 | -28.83313 | 26.93274 | 38273 ft | 365 kts | 250° |
| 2026-04-28 19:32 | -28.85544 | 26.88046 | 38276 ft | 365 kts | 250° |
| 2026-04-28 19:32 | -28.87762 | 26.82841 | 38273 ft | 364 kts | 250° |
| 2026-04-28 19:33 | -28.89970 | 26.77647 | 38274 ft | 365 kts | 250° |
| 2026-04-28 19:33 | -28.92179 | 26.72454 | 38275 ft | 364 kts | 250° |
| 2026-04-28 19:34 | -28.94381 | 26.67266 | 38276 ft | 364 kts | 250° |
| 2026-04-28 19:34 | -28.96583 | 26.62074 | 38275 ft | 363 kts | 250° |
| 2026-04-28 19:35 | -28.98774 | 26.56902 | 38273 ft | 362 kts | 250° |
| 2026-04-28 19:35 | -29.00966 | 26.51713 | 38272 ft | 364 kts | 250° |
| 2026-04-28 19:36 | -29.03139 | 26.46566 | 38271 ft | 361 kts | 250° |
| 2026-04-28 19:36 | -29.05318 | 26.41393 | 38259 ft | 362 kts | 250° |
| 2026-04-28 19:37 | -29.07099 | 26.37162 | 38248 ft | 363 kts | 250° |
| 2026-04-28 19:37 | -29.09738 | 26.31191 | 38242 ft | 364 kts | 246° |
| 2026-04-28 19:38 | -29.12796 | 26.26514 | 38248 ft | 372 kts | 238° |
| 2026-04-28 19:38 | -29.16301 | 26.22141 | 38248 ft | 376 kts | 237° |
| 2026-04-28 19:39 | -29.19888 | 26.17780 | 38250 ft | 376 kts | 236° |
| 2026-04-28 19:39 | -29.23419 | 26.13438 | 38259 ft | 373 kts | 237° |
| 2026-04-28 19:40 | -29.26882 | 26.09134 | 38256 ft | 373 kts | 237° |
| 2026-04-28 19:40 | -29.30365 | 26.04783 | 38250 ft | 373 kts | 237° |
| 2026-04-28 19:41 | -29.33844 | 26.00430 | 38247 ft | 372 kts | 237° |
| 2026-04-28 19:41 | -29.37293 | 25.96108 | 38247 ft | 373 kts | 237° |
| 2026-04-28 19:42 | -29.40766 | 25.91749 | 38249 ft | 372 kts | 237° |
| 2026-04-28 19:42 | -29.43680 | 25.88085 | 38249 ft | 373 kts | 237° |
| 2026-04-28 19:43 | -29.47721 | 25.83006 | 38255 ft | 372 kts | 237° |
| 2026-04-28 19:43 | -29.51197 | 25.78632 | 38254 ft | 373 kts | 237° |
| 2026-04-28 19:44 | -29.54655 | 25.74276 | 38253 ft | 369 kts | 237° |
| 2026-04-28 19:44 | -29.57960 | 25.70103 | 38260 ft | 372 kts | 237° |
| 2026-04-28 19:45 | -29.61440 | 25.65708 | 38261 ft | 371 kts | 237° |
| 2026-04-28 19:45 | -29.64913 | 25.61315 | 38268 ft | 371 kts | 237° |
| 2026-04-28 19:46 | -29.68374 | 25.56938 | 38266 ft | 371 kts | 237° |
| 2026-04-28 19:46 | -29.71823 | 25.52562 | 38269 ft | 370 kts | 237° |
| 2026-04-28 19:47 | -29.75191 | 25.48293 | 38267 ft | 368 kts | 238° |
| 2026-04-28 19:47 | -29.78600 | 25.43962 | 38259 ft | 368 kts | 237° |
| 2026-04-28 19:48 | -29.82044 | 25.39582 | 38262 ft | 370 kts | 237° |
| 2026-04-28 19:48 | -29.85489 | 25.35197 | 38261 ft | 368 kts | 237° |
| 2026-04-28 19:49 | -29.88922 | 25.30828 | 38258 ft | 367 kts | 238° |
| 2026-04-28 19:49 | -29.92332 | 25.26473 | 38257 ft | 369 kts | 238° |
| 2026-04-28 19:50 | -29.97465 | 25.19922 | 38255 ft | 366 kts | 238° |
| 2026-04-28 19:51 | -30.00751 | 25.15717 | 38254 ft | 367 kts | 238° |
| 2026-04-28 19:51 | -30.04087 | 25.11447 | 38256 ft | 364 kts | 238° |
| 2026-04-28 19:52 | -30.07469 | 25.07107 | 38256 ft | 365 kts | 238° |
| 2026-04-28 19:52 | -30.10879 | 25.02732 | 38259 ft | 366 kts | 238° |
| 2026-04-28 19:53 | -30.14289 | 24.98354 | 38265 ft | 365 kts | 239° |
| 2026-04-28 19:53 | -30.17681 | 24.93992 | 38273 ft | 364 kts | 239° |
| 2026-04-28 19:54 | -30.21068 | 24.89630 | 38274 ft | 363 kts | 238° |
| 2026-04-28 19:54 | -30.24427 | 24.85301 | 38275 ft | 364 kts | 238° |
| 2026-04-28 19:55 | -30.27799 | 24.80947 | 38268 ft | 365 kts | 239° |
| 2026-04-28 19:55 | -30.31130 | 24.76644 | 38279 ft | 363 kts | 239° |
| 2026-04-28 19:56 | -30.34478 | 24.72319 | 38276 ft | 361 kts | 239° |
| 2026-04-28 19:56 | -30.37757 | 24.68072 | 38274 ft | 364 kts | 239° |
| 2026-04-28 19:57 | -30.41111 | 24.63759 | 38274 ft | 361 kts | 239° |
| 2026-04-28 19:57 | -30.44488 | 24.59413 | 38274 ft | 362 kts | 239° |
| 2026-04-28 19:58 | -30.47867 | 24.55056 | 38275 ft | 364 kts | 239° |
| 2026-04-28 19:58 | -30.51235 | 24.50713 | 38278 ft | 365 kts | 239° |
| 2026-04-28 19:59 | -30.54638 | 24.46314 | 38273 ft | 363 kts | 239° |
| 2026-04-28 19:59 | -30.58009 | 24.41957 | 38275 ft | 363 kts | 239° |
| 2026-04-28 20:00 | -30.61365 | 24.37608 | 38275 ft | 362 kts | 239° |
| 2026-04-28 20:00 | -30.64745 | 24.33224 | 38279 ft | 361 kts | 239° |
| 2026-04-28 20:01 | -30.68086 | 24.28889 | 38278 ft | 360 kts | 240° |
| 2026-04-28 20:01 | -30.71447 | 24.24517 | 38278 ft | 364 kts | 240° |
| 2026-04-28 20:02 | -30.74828 | 24.20122 | 38275 ft | 362 kts | 240° |
| 2026-04-28 20:02 | -30.78161 | 24.15782 | 38268 ft | 361 kts | 240° |
| 2026-04-28 20:03 | -30.81498 | 24.11429 | 38271 ft | 362 kts | 240° |
| 2026-04-28 20:03 | -30.84854 | 24.07046 | 38270 ft | 363 kts | 240° |
| 2026-04-28 20:04 | -30.88183 | 24.02698 | 38271 ft | 361 kts | 240° |
| 2026-04-28 20:04 | -30.91522 | 23.98328 | 38269 ft | 363 kts | 240° |
| 2026-04-28 20:05 | -30.94879 | 23.93933 | 38270 ft | 362 kts | 240° |
| 2026-04-28 20:05 | -30.98221 | 23.89549 | 38269 ft | 362 kts | 240° |
| 2026-04-28 20:06 | -31.01546 | 23.85181 | 38270 ft | 362 kts | 240° |
| 2026-04-28 20:06 | -31.04819 | 23.80880 | 38270 ft | 361 kts | 240° |
| 2026-04-28 20:07 | -31.07929 | 23.76453 | 38272 ft | 351 kts | 246° |
| 2026-04-28 20:07 | -31.10445 | 23.71587 | 38270 ft | 349 kts | 249° |
| 2026-04-28 20:08 | -31.12895 | 23.66739 | 38272 ft | 347 kts | 248° |
| 2026-04-28 20:08 | -31.15405 | 23.61954 | 38273 ft | 349 kts | 248° |
| 2026-04-28 20:09 | -31.17972 | 23.57151 | 38273 ft | 349 kts | 248° |
| 2026-04-28 20:09 | -31.20531 | 23.52390 | 38273 ft | 351 kts | 248° |
| 2026-04-28 20:10 | -31.23096 | 23.47635 | 38276 ft | 349 kts | 248° |
| 2026-04-28 20:10 | -31.25673 | 23.42840 | 38277 ft | 351 kts | 248° |
| 2026-04-28 20:11 | -31.28230 | 23.38078 | 38272 ft | 349 kts | 248° |
| 2026-04-28 20:11 | -31.30797 | 23.33300 | 38276 ft | 348 kts | 248° |
| 2026-04-28 20:12 | -31.33303 | 23.28622 | 38273 ft | 348 kts | 248° |
| 2026-04-28 20:12 | -31.35785 | 23.23982 | 38274 ft | 349 kts | 248° |
| 2026-04-28 20:13 | -31.38338 | 23.19211 | 38267 ft | 347 kts | 248° |
| 2026-04-28 20:13 | -31.40831 | 23.14545 | 38264 ft | 349 kts | 248° |
| 2026-04-28 20:14 | -31.43329 | 23.09858 | 38265 ft | 348 kts | 248° |
| 2026-04-28 20:14 | -31.45776 | 23.05271 | 38261 ft | 347 kts | 248° |
| 2026-04-28 20:15 | -31.48239 | 23.00639 | 38258 ft | 348 kts | 248° |
| 2026-04-28 20:15 | -31.50734 | 22.95943 | 38254 ft | 348 kts | 249° |
| 2026-04-28 20:16 | -31.53217 | 22.91268 | 38264 ft | 347 kts | 248° |
| 2026-04-28 20:16 | -31.55710 | 22.86564 | 38269 ft | 348 kts | 249° |
| 2026-04-28 20:17 | -31.58250 | 22.81767 | 38270 ft | 346 kts | 248° |
| 2026-04-28 20:17 | -31.59495 | 22.79424 | 38018 ft | 337 kts | 249° |
| 2026-04-28 20:17 | -31.60716 | 22.77136 | 37742 ft | 327 kts | 249° |
| 2026-04-28 20:17 | -31.61908 | 22.74899 | 37460 ft | 318 kts | 249° |
| 2026-04-28 20:18 | -31.63038 | 22.72768 | 37192 ft | 309 kts | 249° |
| 2026-04-28 20:18 | -31.63777 | 22.71369 | 37009 ft | 303 kts | 249° |
| 2026-04-28 20:18 | -31.65225 | 22.68624 | 36643 ft | 291 kts | 250° |
| 2026-04-28 20:18 | -31.66270 | 22.66639 | 36369 ft | 282 kts | 250° |
| 2026-04-28 20:19 | -31.67280 | 22.64719 | 36095 ft | 274 kts | 250° |
| 2026-04-28 20:19 | -31.68264 | 22.62843 | 35828 ft | 271 kts | 251° |
| 2026-04-28 20:19 | -31.69241 | 22.60965 | 35567 ft | 273 kts | 250° |
| 2026-04-28 20:19 | -31.70230 | 22.59061 | 35305 ft | 278 kts | 250° |
| 2026-04-28 20:20 | -31.71222 | 22.57161 | 35042 ft | 279 kts | 250° |
| 2026-04-28 20:20 | -31.72237 | 22.55228 | 34772 ft | 278 kts | 250° |
| 2026-04-28 20:20 | -31.73244 | 22.53315 | 34503 ft | 278 kts | 250° |
| 2026-04-28 20:20 | -31.74255 | 22.51390 | 34238 ft | 279 kts | 250° |
| 2026-04-28 20:21 | -31.75277 | 22.49444 | 33966 ft | 278 kts | 250° |
| 2026-04-28 20:21 | -31.76285 | 22.47525 | 33702 ft | 278 kts | 250° |
| 2026-04-28 20:21 | -31.77301 | 22.45588 | 33434 ft | 280 kts | 250° |
| 2026-04-28 20:21 | -31.78298 | 22.43682 | 33173 ft | 280 kts | 250° |
| 2026-04-28 20:22 | -31.79249 | 22.41863 | 32949 ft | 281 kts | 250° |
| 2026-04-28 20:22 | -31.80264 | 22.39923 | 32721 ft | 283 kts | 250° |
| 2026-04-28 20:22 | -31.81297 | 22.37946 | 32492 ft | 284 kts | 250° |
| 2026-04-28 20:22 | -31.82321 | 22.35993 | 32263 ft | 285 kts | 250° |
| 2026-04-28 20:23 | -31.83364 | 22.33995 | 32034 ft | 288 kts | 251° |
| 2026-04-28 20:23 | -31.84420 | 22.31967 | 31808 ft | 291 kts | 250° |
| 2026-04-28 20:23 | -31.85486 | 22.29925 | 31577 ft | 292 kts | 250° |
| 2026-04-28 20:23 | -31.86547 | 22.27897 | 31345 ft | 292 kts | 250° |
| 2026-04-28 20:24 | -31.87615 | 22.25857 | 31111 ft | 293 kts | 250° |
| 2026-04-28 20:24 | -31.88685 | 22.23804 | 30889 ft | 297 kts | 250° |
| 2026-04-28 20:24 | -31.89760 | 22.21735 | 30655 ft | 299 kts | 250° |
| 2026-04-28 20:24 | -31.90812 | 22.19716 | 30431 ft | 299 kts | 250° |
| 2026-04-28 20:25 | -31.91901 | 22.17626 | 30293 ft | 300 kts | 250° |
| 2026-04-28 20:25 | -31.94089 | 22.13425 | 30285 ft | 303 kts | 250° |
| 2026-04-28 20:26 | -31.96288 | 22.09194 | 30287 ft | 303 kts | 249° |
| 2026-04-28 20:26 | -31.98498 | 22.04939 | 30286 ft | 304 kts | 250° |
| 2026-04-28 20:27 | -32.00702 | 22.00687 | 30291 ft | 303 kts | 250° |
| 2026-04-28 20:27 | -32.02907 | 21.96429 | 30292 ft | 304 kts | 250° |
| 2026-04-28 20:28 | -32.05108 | 21.92175 | 30285 ft | 303 kts | 250° |
| 2026-04-28 20:28 | -32.07321 | 21.87886 | 30286 ft | 304 kts | 250° |
| 2026-04-28 20:29 | -32.09514 | 21.83639 | 30288 ft | 304 kts | 250° |
| 2026-04-28 20:29 | -32.11731 | 21.79335 | 30287 ft | 305 kts | 249° |
| 2026-04-28 20:30 | -32.13930 | 21.75073 | 30285 ft | 304 kts | 250° |
| 2026-04-28 20:30 | -32.16134 | 21.70783 | 30285 ft | 303 kts | 249° |
| 2026-04-28 20:31 | -32.18330 | 21.66504 | 30276 ft | 307 kts | 250° |
| 2026-04-28 20:31 | -32.20526 | 21.62233 | 30274 ft | 302 kts | 250° |
| 2026-04-28 20:32 | -32.22741 | 21.57914 | 30268 ft | 304 kts | 250° |
| 2026-04-28 20:32 | -32.24945 | 21.53600 | 30261 ft | 303 kts | 249° |
| 2026-04-28 20:33 | -32.27138 | 21.49312 | 30264 ft | 305 kts | 249° |
| 2026-04-28 20:33 | -32.29329 | 21.45023 | 30268 ft | 305 kts | 250° |
| 2026-04-28 20:34 | -32.31527 | 21.40711 | 30262 ft | 307 kts | 249° |
| 2026-04-28 20:34 | -32.33728 | 21.36398 | 30273 ft | 305 kts | 249° |
| 2026-04-28 20:35 | -32.35919 | 21.32089 | 30268 ft | 306 kts | 250° |
| 2026-04-28 20:35 | -32.38112 | 21.27775 | 30274 ft | 306 kts | 250° |
| 2026-04-28 20:36 | -32.40314 | 21.23439 | 30272 ft | 305 kts | 250° |
| 2026-04-28 20:36 | -32.42500 | 21.19130 | 30267 ft | 304 kts | 249° |
| 2026-04-28 20:37 | -32.44655 | 21.14878 | 30265 ft | 308 kts | 250° |
| 2026-04-28 20:37 | -32.46860 | 21.10521 | 30268 ft | 306 kts | 250° |
| 2026-04-28 20:38 | -32.49048 | 21.06195 | 30269 ft | 307 kts | 250° |
| 2026-04-28 20:38 | -32.51250 | 21.01837 | 30273 ft | 307 kts | 250° |
| 2026-04-28 20:39 | -32.53451 | 20.97470 | 30273 ft | 306 kts | 249° |
| 2026-04-28 20:39 | -32.55619 | 20.93168 | 30275 ft | 307 kts | 250° |
| 2026-04-28 20:40 | -32.57823 | 20.88780 | 30270 ft | 307 kts | 249° |
| 2026-04-28 20:40 | -32.60005 | 20.84445 | 30274 ft | 308 kts | 249° |
| 2026-04-28 20:41 | -32.62203 | 20.80066 | 30270 ft | 309 kts | 250° |
| 2026-04-28 20:41 | -32.64405 | 20.75672 | 30271 ft | 308 kts | 249° |
| 2026-04-28 20:42 | -32.66608 | 20.71275 | 30269 ft | 310 kts | 249° |
| 2026-04-28 20:42 | -32.68811 | 20.66871 | 30271 ft | 308 kts | 249° |
| 2026-04-28 20:43 | -32.70965 | 20.62561 | 30277 ft | 311 kts | 249° |
| 2026-04-28 20:43 | -32.73183 | 20.58115 | 30274 ft | 310 kts | 249° |
| 2026-04-28 20:44 | -32.75378 | 20.53709 | 30283 ft | 308 kts | 249° |
| 2026-04-28 20:44 | -32.77559 | 20.49330 | 30285 ft | 309 kts | 249° |
| 2026-04-28 20:45 | -32.79760 | 20.44901 | 30283 ft | 313 kts | 249° |
| 2026-04-28 20:45 | -32.81954 | 20.40487 | 30278 ft | 310 kts | 249° |
| 2026-04-28 20:46 | -32.84160 | 20.36031 | 30280 ft | 312 kts | 249° |
| 2026-04-28 20:46 | -32.86368 | 20.31575 | 30277 ft | 313 kts | 249° |
| 2026-04-28 20:47 | -32.88537 | 20.27195 | 30282 ft | 312 kts | 250° |
| 2026-04-28 20:47 | -32.90748 | 20.22722 | 30281 ft | 314 kts | 249° |
| 2026-04-28 20:48 | -32.92956 | 20.18246 | 30287 ft | 320 kts | 249° |
| 2026-04-28 20:48 | -32.94092 | 20.15918 | 30286 ft | 332 kts | 249° |
| 2026-04-28 20:48 | -32.95276 | 20.13491 | 30282 ft | 344 kts | 249° |
| 2026-04-28 20:49 | -32.97738 | 20.08484 | 30291 ft | 357 kts | 248° |
| 2026-04-28 20:49 | -33.00252 | 20.03393 | 30286 ft | 356 kts | 249° |
| 2026-04-28 20:50 | -33.02772 | 19.98288 | 30287 ft | 357 kts | 248° |
| 2026-04-28 20:50 | -33.05300 | 19.93142 | 30286 ft | 360 kts | 248° |
| 2026-04-28 20:51 | -33.07815 | 19.88013 | 30277 ft | 358 kts | 248° |
| 2026-04-28 20:51 | -33.10313 | 19.82909 | 30277 ft | 359 kts | 249° |
| 2026-04-28 20:52 | -33.12844 | 19.77716 | 30271 ft | 360 kts | 248° |
| 2026-04-28 20:52 | -33.15348 | 19.72577 | 30262 ft | 360 kts | 248° |
| 2026-04-28 20:53 | -33.19168 | 19.64706 | 29801 ft | 384 kts | 248° |
| 2026-04-28 20:53 | -33.20516 | 19.61910 | 29560 ft | 391 kts | 246° |
| 2026-04-28 20:53 | -33.21897 | 19.59063 | 29311 ft | 394 kts | 246° |
| 2026-04-28 20:54 | -33.23273 | 19.56234 | 29066 ft | 396 kts | 246° |
| 2026-04-28 20:54 | -33.24623 | 19.53455 | 28834 ft | 397 kts | 246° |
| 2026-04-28 20:54 | -33.26025 | 19.50563 | 28587 ft | 402 kts | 246° |
| 2026-04-28 20:54 | -33.27430 | 19.47667 | 28342 ft | 403 kts | 246° |
| 2026-04-28 20:55 | -33.28827 | 19.44787 | 28106 ft | 405 kts | 245° |
| 2026-04-28 20:55 | -33.30250 | 19.41846 | 27870 ft | 409 kts | 245° |
| 2026-04-28 20:55 | -33.31681 | 19.38886 | 27483 ft | 410 kts | 245° |
| 2026-04-28 20:55 | -33.33114 | 19.35919 | 26528 ft | 414 kts | 244° |
| 2026-04-28 20:56 | -33.34555 | 19.32926 | 25363 ft | 422 kts | 244° |
| 2026-04-28 20:56 | -33.36021 | 19.29870 | 24357 ft | 423 kts | 243° |
| 2026-04-28 20:56 | -33.37478 | 19.26802 | 23807 ft | 413 kts | 243° |
| 2026-04-28 20:56 | -33.38849 | 19.23887 | 22962 ft | 398 kts | 243° |
| 2026-04-28 20:57 | -33.40184 | 19.20991 | 22204 ft | 385 kts | 243° |
| 2026-04-28 20:57 | -33.41381 | 19.18356 | 21699 ft | 379 kts | 243° |
| 2026-04-28 20:57 | -33.42625 | 19.15570 | 21113 ft | 382 kts | 243° |
| 2026-04-28 20:57 | -33.43860 | 19.12761 | 20520 ft | 380 kts | 243° |
| 2026-04-28 20:58 | -33.45076 | 19.09962 | 20290 ft | 367 kts | 243° |
| 2026-04-28 20:58 | -33.46227 | 19.07286 | 19945 ft | 363 kts | 243° |
| 2026-04-28 20:58 | -33.47372 | 19.04601 | 19617 ft | 353 kts | 243° |
| 2026-04-28 20:58 | -33.48481 | 19.01978 | 19132 ft | 350 kts | 243° |
| 2026-04-28 20:59 | -33.49578 | 18.99351 | 18474 ft | 352 kts | 243° |
| 2026-04-28 20:59 | -33.50661 | 18.96709 | 17801 ft | 354 kts | 243° |
| 2026-04-28 20:59 | -33.51741 | 18.94045 | 17324 ft | 350 kts | 243° |
| 2026-04-28 20:59 | -33.52796 | 18.91425 | 16725 ft | 347 kts | 243° |
| 2026-04-28 21:00 | -33.53841 | 18.88813 | 16087 ft | 337 kts | 243° |
| 2026-04-28 21:00 | -33.54824 | 18.86343 | 15636 ft | 323 kts | 243° |
| 2026-04-28 21:00 | -33.55767 | 18.83950 | 15190 ft | 311 kts | 243° |
| 2026-04-28 21:00 | -33.56678 | 18.81627 | 14886 ft | 302 kts | 243° |
| 2026-04-28 21:01 | -33.57576 | 18.79325 | 14414 ft | 302 kts | 243° |
| 2026-04-28 21:01 | -33.58457 | 18.77052 | 14007 ft | 300 kts | 243° |
| 2026-04-28 21:01 | -33.59338 | 18.74758 | 13584 ft | 298 kts | 243° |
| 2026-04-28 21:01 | -33.60197 | 18.72501 | 13170 ft | 297 kts | 244° |
| 2026-04-28 21:02 | -33.61055 | 18.70247 | 12756 ft | 296 kts | 243° |
| 2026-04-28 21:02 | -33.61911 | 18.68000 | 12355 ft | 294 kts | 243° |
| 2026-04-28 21:02 | -33.62756 | 18.65783 | 11979 ft | 292 kts | 243° |
| 2026-04-28 21:02 | -33.63618 | 18.63521 | 11568 ft | 291 kts | 243° |
| 2026-04-28 21:03 | -33.64458 | 18.61310 | 11203 ft | 289 kts | 243° |
| 2026-04-28 21:03 | -33.65295 | 18.59108 | 10863 ft | 286 kts | 243° |
| 2026-04-28 21:03 | -33.66108 | 18.56950 | 10624 ft | 279 kts | 245° |
| 2026-04-28 21:03 | -33.66651 | 18.54733 | 10455 ft | 271 kts | 264° |
| 2026-04-28 21:04 | -33.66412 | 18.52523 | 10289 ft | 264 kts | 289° |
| 2026-04-28 21:04 | -33.65559 | 18.50621 | 9971 ft | 260 kts | 310° |
| 2026-04-28 21:04 | -33.64171 | 18.49240 | 9554 ft | 254 kts | 336° |
| 2026-04-28 21:04 | -33.62482 | 18.48785 | 9109 ft | 246 kts | 7° |
| 2026-04-28 21:05 | -33.60887 | 18.49373 | 8652 ft | 238 kts | 37° |
| 2026-04-28 21:05 | -33.59801 | 18.50831 | 8199 ft | 231 kts | 69° |
| 2026-04-28 21:05 | -33.59539 | 18.52681 | 7731 ft | 227 kts | 99° |
| 2026-04-28 21:05 | -33.60162 | 18.54413 | 7259 ft | 227 kts | 131° |
| 2026-04-28 21:06 | -33.61465 | 18.55457 | 6817 ft | 229 kts | 162° |
| 2026-04-28 21:06 | -33.63068 | 18.55611 | 6401 ft | 230 kts | 181° |
| 2026-04-28 21:06 | -33.64655 | 18.55424 | 6147 ft | 227 kts | 183° |
| 2026-04-28 21:06 | -33.66246 | 18.55208 | 5816 ft | 226 kts | 184° |
| 2026-04-28 21:07 | -33.67793 | 18.54994 | 5669 ft | 218 kts | 183° |
| 2026-04-28 21:07 | -33.69276 | 18.54786 | 5553 ft | 208 kts | 183° |
| 2026-04-28 21:07 | -33.70719 | 18.54582 | 5313 ft | 206 kts | 182° |
| 2026-04-28 21:07 | -33.72131 | 18.54374 | 5091 ft | 201 kts | 183° |
| 2026-04-28 21:08 | -33.73499 | 18.54177 | 4889 ft | 192 kts | 181° |
| 2026-04-28 21:08 | -33.74786 | 18.54113 | 4805 ft | 179 kts | 174° |
| 2026-04-28 21:08 | -33.76030 | 18.54237 | 4528 ft | 178 kts | 167° |
| 2026-04-28 21:08 | -33.77276 | 18.54367 | 4253 ft | 171 kts | 171° |
| 2026-04-28 21:09 | -33.78419 | 18.54546 | 4018 ft | 159 kts | 163° |
| 2026-04-28 21:09 | -33.79473 | 18.54842 | 3786 ft | 152 kts | 160° |
| 2026-04-28 21:09 | -33.80487 | 18.55152 | 3595 ft | 147 kts | 161° |
| 2026-04-28 21:09 | -33.81495 | 18.55462 | 3355 ft | 148 kts | 161° |
| 2026-04-28 21:10 | -33.82487 | 18.55771 | 3105 ft | 143 kts | 161° |
| 2026-04-28 21:10 | -33.83466 | 18.56078 | 2917 ft | 144 kts | 160° |
| 2026-04-28 21:10 | -33.84434 | 18.56380 | 2700 ft | 141 kts | 160° |
| 2026-04-28 21:10 | -33.85360 | 18.56669 | 2487 ft | 137 kts | 160° |
| 2026-04-28 21:11 | -33.86290 | 18.56964 | 2300 ft | 135 kts | 160° |
| 2026-04-28 21:11 | -33.87185 | 18.57242 | 2078 ft | 127 kts | 160° |
| 2026-04-28 21:11 | -33.88025 | 18.57506 | 1920 ft | 124 kts | 160° |
| 2026-04-28 21:11 | -33.88873 | 18.57774 | 1763 ft | 123 kts | 160° |
| 2026-04-28 21:12 | -33.89723 | 18.58044 | 1599 ft | 136 kts | 160° |
| 2026-04-28 21:12 | -33.90593 | 18.58310 | 1518 ft | 125 kts | 161° |
| 2026-04-28 21:12 | -33.91439 | 18.58559 | 1218 ft | 125 kts | 160° |
| 2026-04-28 21:12 | -33.92290 | 18.58838 | 991 ft | 125 kts | 160° |
| 2026-04-28 21:13 | -33.93130 | 18.59112 | 773 ft | 124 kts | 160° |
| 2026-04-28 21:13 | -33.93966 | 18.59368 | 611 ft | 122 kts | 161° |
| 2026-04-28 21:13 | -33.94795 | 18.59625 | 448 ft | 123 kts | 161° |
| 2026-04-28 21:13 | -33.95618 | 18.59879 | 284 ft | 122 kts | 161° |
| 2026-04-28 21:14 | -33.96402 | 18.60130 | 170 ft | 118 kts | 160° |
| 2026-04-28 21:14 | -33.97140 | 18.60391 | 158 ft | 112 kts | 166° |
| 2026-04-28 21:14 | -33.97810 | 18.60601 | 153 ft | 68 kts | 167° |
| 2026-04-28 21:14 | -33.98167 | 18.60703 | 153 ft | 48 kts | 166° |
| 2026-04-28 21:15 | -33.98455 | 18.60796 | 153 ft | 41 kts | 166° |
| 2026-04-28 21:15 | -33.98706 | 18.60861 | 153 ft | 26 kts | 186° |
| 2026-04-28 21:15 | -33.98794 | 18.60754 | 151 ft | 20 kts | 253° |
| 2026-04-28 21:15 | -33.98743 | 18.60632 | 149 ft | 17 kts | 340° |
| 2026-04-28 21:16 | -33.98603 | 18.60571 | 149 ft | 26 kts | 340° |
| 2026-04-28 21:16 | -33.98414 | 18.60493 | 149 ft | 28 kts | 335° |
| 2026-04-28 21:16 | -33.98234 | 18.60413 | 149 ft | 26 kts | 341° |
| 2026-04-28 21:16 | -33.98067 | 18.60342 | 149 ft | 23 kts | 341° |
| 2026-04-28 21:17 | -33.97915 | 18.60280 | 149 ft | 24 kts | 340° |
| 2026-04-28 21:17 | -33.97765 | 18.60215 | 151 ft | 20 kts | 339° |
| 2026-04-28 21:17 | -33.97635 | 18.60153 | 153 ft | 22 kts | 338° |
| 2026-04-28 21:17 | -33.97531 | 18.60103 | 155 ft | 11 kts | 335° |
| 2026-04-28 21:18 | -33.97436 | 18.60063 | 156 ft | 17 kts | 346° |
| 2026-04-28 21:18 | -33.97324 | 18.60026 | 156 ft | 16 kts | 344° |
| 2026-04-28 21:18 | -33.97193 | 18.59984 | 159 ft | 18 kts | 346° |
| 2026-04-28 21:18 | -33.97057 | 18.59952 | 159 ft | 19 kts | 347° |
| 2026-04-28 21:19 | -33.96924 | 18.59910 | 161 ft | 19 kts | 344° |
| 2026-04-28 21:19 | -33.96823 | 18.59861 | 162 ft | 10 kts | 299° |
| 2026-04-28 21:19 | -33.96830 | 18.59806 | 162 ft | 5 kts | 251° |
| 2026-04-28 21:19 | -33.96837 | 18.59777 | 161 ft | 1 kts | 255° |
| 2026-04-28 21:20 | -33.96838 | 18.59773 | 161 ft | 0 kts | 255° |